sensor_id;sensor_type;location;lat;lon;timestamp;pressure;altitude;pressure_sealevel;temperature;humidity
12624;BME280;6377;42.836;23.998;2023-08-17T00:01:11;95835.38;;;20.30;100.00
12624;BME280;6377;42.836;23.998;2023-08-17T00:03:41;95837.50;;;20.28;100.00
12624;BME280;6377;42.836;23.998;2023-08-17T00:06:08;95837.00;;;20.19;100.00
12624;BME280;6377;42.836;23.998;2023-08-17T00:08:36;95849.97;;;20.22;100.00
12624;BME280;6377;42.836;23.998;2023-08-17T00:11:03;95842.13;;;20.21;100.00
12624;BME280;6377;42.836;23.998;2023-08-17T00:13:31;95842.97;;;20.33;100.00
12624;BME280;6377;42.836;23.998;2023-08-17T00:15:59;95844.94;;;20.26;100.00
12624;BME280;6377;42.836;23.998;2023-08-17T00:18:27;95846.69;;;20.32;100.00
12624;BME280;6377;42.836;23.998;2023-08-17T00:20:54;95847.78;;;20.31;100.00
12624;BME280;6377;42.836;23.998;2023-08-17T00:23:22;95846.59;;;20.27;100.00
12624;BME280;6377;42.836;23.998;2023-08-17T00:25:49;95823.69;;;20.01;100.00
12624;BME280;6377;42.836;23.998;2023-08-17T00:28:16;95840.38;;;20.14;100.00
12624;BME280;6377;42.836;23.998;2023-08-17T00:30:43;95832.66;;;20.18;100.00
12624;BME280;6377;42.836;23.998;2023-08-17T00:33:13;95840.81;;;20.23;100.00
12624;BME280;6377;42.836;23.998;2023-08-17T00:35:40;95827.88;;;20.20;100.00
12624;BME280;6377;42.836;23.998;2023-08-17T00:38:07;95794.63;;;19.98;100.00
12624;BME280;6377;42.836;23.998;2023-08-17T00:40:35;95827.19;;;20.13;100.00
12624;BME280;6377;42.836;23.998;2023-08-17T00:43:02;95839.91;;;20.18;100.00
12624;BME280;6377;42.836;23.998;2023-08-17T00:45:31;95826.47;;;19.94;100.00
12624;BME280;6377;42.836;23.998;2023-08-17T00:47:59;95833.81;;;19.87;100.00
12624;BME280;6377;42.836;23.998;2023-08-17T00:50:29;95715.41;;;19.08;100.00
12624;BME280;6377;42.836;23.998;2023-08-17T00:52:57;95838.59;;;19.85;100.00
12624;BME280;6377;42.836;23.998;2023-08-17T00:55:24;95820.63;;;19.74;100.00
12624;BME280;6377;42.836;23.998;2023-08-17T00:57:53;95850.06;;;19.92;100.00
12624;BME280;6377;42.836;23.998;2023-08-17T01:00:24;95843.41;;;19.95;100.00
12624;BME280;6377;42.836;23.998;2023-08-17T01:02:51;95846.66;;;19.97;100.00
12624;BME280;6377;42.836;23.998;2023-08-17T01:05:19;95845.28;;;20.06;100.00
12624;BME280;6377;42.836;23.998;2023-08-17T01:07:47;95826.25;;;19.96;100.00
12624;BME280;6377;42.836;23.998;2023-08-17T01:10:15;95829.41;;;20.04;100.00
12624;BME280;6377;42.836;23.998;2023-08-17T01:12:48;95832.88;;;20.05;100.00
12624;BME280;6377;42.836;23.998;2023-08-17T01:15:23;95834.78;;;20.04;100.00
12624;BME280;6377;42.836;23.998;2023-08-17T01:17:56;95829.63;;;19.91;100.00
12624;BME280;6377;42.836;23.998;2023-08-17T01:20:24;95831.72;;;19.89;100.00
12624;BME280;6377;42.836;23.998;2023-08-17T01:22:55;95811.19;;;19.83;100.00
12624;BME280;6377;42.836;23.998;2023-08-17T01:25:26;95825.53;;;19.89;100.00
12624;BME280;6377;42.836;23.998;2023-08-17T01:27:53;95832.09;;;19.93;100.00
12624;BME280;6377;42.836;23.998;2023-08-17T01:30:20;95822.66;;;20.02;100.00
12624;BME280;6377;42.836;23.998;2023-08-17T01:32:52;95656.16;;;18.97;100.00
12624;BME280;6377;42.836;23.998;2023-08-17T01:35:26;95833.50;;;20.07;100.00
12624;BME280;6377;42.836;23.998;2023-08-17T01:37:58;95823.91;;;19.99;100.00
12624;BME280;6377;42.836;23.998;2023-08-17T01:40:28;95837.78;;;20.08;100.00
12624;BME280;6377;42.836;23.998;2023-08-17T01:42:58;95797.75;;;19.83;100.00
12624;BME280;6377;42.836;23.998;2023-08-17T01:45:25;95803.81;;;19.90;100.00
12624;BME280;6377;42.836;23.998;2023-08-17T01:47:53;95824.16;;;20.09;100.00
12624;BME280;6377;42.836;23.998;2023-08-17T01:50:21;95825.78;;;20.10;100.00
12624;BME280;6377;42.836;23.998;2023-08-17T01:52:49;95818.78;;;20.09;100.00
12624;BME280;6377;42.836;23.998;2023-08-17T01:55:16;95814.69;;;20.07;100.00
12624;BME280;6377;42.836;23.998;2023-08-17T01:57:45;95820.75;;;20.14;100.00
12624;BME280;6377;42.836;23.998;2023-08-17T02:00:15;95805.34;;;19.98;100.00
12624;BME280;6377;42.836;23.998;2023-08-17T02:02:42;95814.91;;;20.05;100.00
12624;BME280;6377;42.836;23.998;2023-08-17T02:05:10;95813.63;;;19.96;100.00
12624;BME280;6377;42.836;23.998;2023-08-17T02:07:37;95811.41;;;20.05;100.00
12624;BME280;6377;42.836;23.998;2023-08-17T02:10:05;95804.63;;;20.02;100.00
12624;BME280;6377;42.836;23.998;2023-08-17T02:12:33;95790.19;;;19.92;100.00
12624;BME280;6377;42.836;23.998;2023-08-17T02:15:02;95814.22;;;19.98;100.00
12624;BME280;6377;42.836;23.998;2023-08-17T02:17:29;95812.59;;;19.97;100.00
12624;BME280;6377;42.836;23.998;2023-08-17T02:19:56;95813.88;;;19.95;100.00
12624;BME280;6377;42.836;23.998;2023-08-17T02:22:23;95813.03;;;19.94;100.00
12624;BME280;6377;42.836;23.998;2023-08-17T02:24:51;95812.47;;;19.92;100.00
12624;BME280;6377;42.836;23.998;2023-08-17T02:27:18;95823.19;;;19.81;100.00
12624;BME280;6377;42.836;23.998;2023-08-17T02:29:45;95826.00;;;19.74;100.00
12624;BME280;6377;42.836;23.998;2023-08-17T02:32:14;95825.25;;;19.55;100.00
12624;BME280;6377;42.836;23.998;2023-08-17T02:34:41;95824.75;;;19.47;100.00
12624;BME280;6377;42.836;23.998;2023-08-17T02:37:08;95823.72;;;19.48;100.00
12624;BME280;6377;42.836;23.998;2023-08-17T02:39:36;95823.03;;;19.52;100.00
12624;BME280;6377;42.836;23.998;2023-08-17T02:42:03;95801.91;;;19.44;100.00
12624;BME280;6377;42.836;23.998;2023-08-17T02:44:31;95821.88;;;19.60;100.00
12624;BME280;6377;42.836;23.998;2023-08-17T02:46:58;95798.41;;;19.44;100.00
12624;BME280;6377;42.836;23.998;2023-08-17T02:49:27;95818.13;;;19.49;100.00
12624;BME280;6377;42.836;23.998;2023-08-17T02:51:54;95817.63;;;19.41;100.00
12624;BME280;6377;42.836;23.998;2023-08-17T02:54:21;95818.75;;;19.33;100.00
12624;BME280;6377;42.836;23.998;2023-08-17T02:56:49;95822.72;;;19.31;100.00
12624;BME280;6377;42.836;23.998;2023-08-17T02:59:16;95780.50;;;18.96;100.00
12624;BME280;6377;42.836;23.998;2023-08-17T03:01:44;95809.63;;;19.23;100.00
12624;BME280;6377;42.836;23.998;2023-08-17T03:04:12;95808.69;;;19.29;100.00
12624;BME280;6377;42.836;23.998;2023-08-17T03:06:41;95818.19;;;19.31;100.00
12624;BME280;6377;42.836;23.998;2023-08-17T03:09:08;95810.72;;;19.33;100.00
12624;BME280;6377;42.836;23.998;2023-08-17T03:11:36;95817.06;;;19.39;100.00
12624;BME280;6377;42.836;23.998;2023-08-17T03:14:04;95815.56;;;19.43;100.00
12624;BME280;6377;42.836;23.998;2023-08-17T03:16:31;95821.88;;;19.48;100.00
12624;BME280;6377;42.836;23.998;2023-08-17T03:18:58;95825.50;;;19.54;100.00
12624;BME280;6377;42.836;23.998;2023-08-17T03:21:26;95826.06;;;19.56;100.00
12624;BME280;6377;42.836;23.998;2023-08-17T03:23:54;95831.34;;;19.63;100.00
12624;BME280;6377;42.836;23.998;2023-08-17T03:26:22;95825.25;;;19.67;100.00
12624;BME280;6377;42.836;23.998;2023-08-17T03:28:49;95826.91;;;19.68;100.00
12624;BME280;6377;42.836;23.998;2023-08-17T03:31:16;95829.38;;;19.70;100.00
12624;BME280;6377;42.836;23.998;2023-08-17T03:33:44;95826.00;;;19.74;100.00
12624;BME280;6377;42.836;23.998;2023-08-17T03:36:11;95811.50;;;19.64;100.00
12624;BME280;6377;42.836;23.998;2023-08-17T03:38:38;95824.69;;;19.65;100.00
12624;BME280;6377;42.836;23.998;2023-08-17T03:41:07;95830.38;;;19.45;100.00
12624;BME280;6377;42.836;23.998;2023-08-17T03:43:34;95795.41;;;19.22;100.00
12624;BME280;6377;42.836;23.998;2023-08-17T03:46:03;95804.22;;;19.41;100.00
12624;BME280;6377;42.836;23.998;2023-08-17T03:48:31;95822.34;;;19.57;100.00
12624;BME280;6377;42.836;23.998;2023-08-17T03:50:58;95828.28;;;19.59;100.00
12624;BME280;6377;42.836;23.998;2023-08-17T03:53:27;95827.84;;;19.62;100.00
12624;BME280;6377;42.836;23.998;2023-08-17T03:55:54;95835.66;;;19.64;100.00
12624;BME280;6377;42.836;23.998;2023-08-17T03:58:23;95839.13;;;19.64;100.00
12624;BME280;6377;42.836;23.998;2023-08-17T04:00:52;95823.47;;;19.49;100.00
12624;BME280;6377;42.836;23.998;2023-08-17T04:03:20;95842.44;;;19.66;100.00
12624;BME280;6377;42.836;23.998;2023-08-17T04:05:47;95817.06;;;19.50;100.00
12624;BME280;6377;42.836;23.998;2023-08-17T04:08:14;95845.69;;;19.68;100.00
12624;BME280;6377;42.836;23.998;2023-08-17T04:10:41;95851.31;;;19.67;100.00
12624;BME280;6377;42.836;23.998;2023-08-17T04:13:08;95846.72;;;19.67;100.00
12624;BME280;6377;42.836;23.998;2023-08-17T04:15:37;95844.38;;;19.59;100.00
12624;BME280;6377;42.836;23.998;2023-08-17T04:18:04;95844.72;;;19.51;100.00
12624;BME280;6377;42.836;23.998;2023-08-17T04:20:31;95841.56;;;19.42;100.00
12624;BME280;6377;42.836;23.998;2023-08-17T04:22:58;95840.78;;;19.35;100.00
12624;BME280;6377;42.836;23.998;2023-08-17T04:25:25;95843.94;;;19.32;100.00
12624;BME280;6377;42.836;23.998;2023-08-17T04:27:52;95852.59;;;19.34;100.00
12624;BME280;6377;42.836;23.998;2023-08-17T04:30:19;95847.75;;;19.25;100.00
12624;BME280;6377;42.836;23.998;2023-08-17T04:32:48;95854.25;;;19.17;100.00
12624;BME280;6377;42.836;23.998;2023-08-17T04:35:18;95852.50;;;19.23;100.00
12624;BME280;6377;42.836;23.998;2023-08-17T04:37:45;95870.75;;;19.32;100.00
12624;BME280;6377;42.836;23.998;2023-08-17T04:40:12;95852.50;;;19.41;100.00
12624;BME280;6377;42.836;23.998;2023-08-17T04:42:40;95844.16;;;19.49;100.00
12624;BME280;6377;42.836;23.998;2023-08-17T04:45:08;95846.84;;;19.61;100.00
12624;BME280;6377;42.836;23.998;2023-08-17T04:47:35;95854.91;;;19.61;100.00
12624;BME280;6377;42.836;23.998;2023-08-17T04:50:04;95766.63;;;18.99;100.00
12624;BME280;6377;42.836;23.998;2023-08-17T04:52:31;95858.03;;;19.46;100.00
12624;BME280;6377;42.836;23.998;2023-08-17T04:54:58;95850.66;;;19.41;100.00
12624;BME280;6377;42.836;23.998;2023-08-17T04:57:25;95852.19;;;19.49;100.00
12624;BME280;6377;42.836;23.998;2023-08-17T04:59:53;95854.91;;;19.61;100.00
12624;BME280;6377;42.836;23.998;2023-08-17T05:02:21;95850.13;;;19.63;100.00
12624;BME280;6377;42.836;23.998;2023-08-17T05:04:48;95849.88;;;19.64;100.00
12624;BME280;6377;42.836;23.998;2023-08-17T05:07:16;95854.22;;;19.65;100.00
12624;BME280;6377;42.836;23.998;2023-08-17T05:09:44;95859.94;;;19.69;100.00
12624;BME280;6377;42.836;23.998;2023-08-17T05:12:11;95851.19;;;19.73;100.00
12624;BME280;6377;42.836;23.998;2023-08-17T05:14:39;95800.81;;;19.34;100.00
12624;BME280;6377;42.836;23.998;2023-08-17T05:17:06;95855.50;;;19.74;100.00
12624;BME280;6377;42.836;23.998;2023-08-17T05:19:33;95854.81;;;19.79;100.00
12624;BME280;6377;42.836;23.998;2023-08-17T05:22:01;95849.56;;;19.72;100.00
12624;BME280;6377;42.836;23.998;2023-08-17T05:24:29;95852.84;;;19.86;100.00
12624;BME280;6377;42.836;23.998;2023-08-17T05:26:56;95875.59;;;19.83;100.00
12624;BME280;6377;42.836;23.998;2023-08-17T05:29:23;95852.13;;;19.90;100.00
12624;BME280;6377;42.836;23.998;2023-08-17T05:31:52;95818.50;;;19.65;100.00
12624;BME280;6377;42.836;23.998;2023-08-17T05:34:20;95858.34;;;20.02;100.00
12624;BME280;6377;42.836;23.998;2023-08-17T05:36:47;95862.78;;;20.08;100.00
12624;BME280;6377;42.836;23.998;2023-08-17T05:39:14;95863.50;;;20.16;100.00
12624;BME280;6377;42.836;23.998;2023-08-17T05:41:43;95854.91;;;20.25;100.00
12624;BME280;6377;42.836;23.998;2023-08-17T05:44:11;95859.44;;;20.36;100.00
12624;BME280;6377;42.836;23.998;2023-08-17T05:46:39;95856.97;;;20.46;100.00
12624;BME280;6377;42.836;23.998;2023-08-17T05:49:07;95854.16;;;20.53;100.00
12624;BME280;6377;42.836;23.998;2023-08-17T05:51:34;95849.50;;;20.60;100.00
12624;BME280;6377;42.836;23.998;2023-08-17T05:54:01;95856.16;;;20.57;100.00
12624;BME280;6377;42.836;23.998;2023-08-17T05:56:28;95829.97;;;20.53;100.00
12624;BME280;6377;42.836;23.998;2023-08-17T05:58:57;95845.59;;;20.67;100.00
12624;BME280;6377;42.836;23.998;2023-08-17T06:01:24;95847.59;;;20.72;100.00
12624;BME280;6377;42.836;23.998;2023-08-17T06:03:57;95841.50;;;20.77;100.00
12624;BME280;6377;42.836;23.998;2023-08-17T06:06:24;95843.50;;;20.81;100.00
12624;BME280;6377;42.836;23.998;2023-08-17T06:08:53;95846.28;;;20.86;100.00
12624;BME280;6377;42.836;23.998;2023-08-17T06:11:20;95815.84;;;20.57;100.00
12624;BME280;6377;42.836;23.998;2023-08-17T06:13:48;95746.28;;;20.09;100.00
12624;BME280;6377;42.836;23.998;2023-08-17T06:16:17;95845.06;;;20.94;100.00
12624;BME280;6377;42.836;23.998;2023-08-17T06:18:44;95844.25;;;20.93;100.00
12624;BME280;6377;42.836;23.998;2023-08-17T06:21:11;95848.78;;;21.04;100.00
12624;BME280;6377;42.836;23.998;2023-08-17T06:23:39;95850.88;;;21.02;100.00
12624;BME280;6377;42.836;23.998;2023-08-17T06:26:06;95771.81;;;20.47;100.00
12624;BME280;6377;42.836;23.998;2023-08-17T06:28:33;95854.72;;;21.18;100.00
12624;BME280;6377;42.836;23.998;2023-08-17T06:31:00;95746.78;;;20.58;100.00
12624;BME280;6377;42.836;23.998;2023-08-17T06:33:29;95850.25;;;21.23;100.00
12624;BME280;6377;42.836;23.998;2023-08-17T06:35:56;95848.25;;;21.31;100.00
12624;BME280;6377;42.836;23.998;2023-08-17T06:38:23;95848.19;;;21.42;100.00
12624;BME280;6377;42.836;23.998;2023-08-17T06:40:51;95835.31;;;21.44;100.00
12624;BME280;6377;42.836;23.998;2023-08-17T06:43:18;95848.56;;;21.62;100.00
12624;BME280;6377;42.836;23.998;2023-08-17T06:45:46;95854.69;;;21.74;100.00
12624;BME280;6377;42.836;23.998;2023-08-17T06:48:13;95853.91;;;21.91;100.00
12624;BME280;6377;42.836;23.998;2023-08-17T06:50:42;95763.78;;;21.32;100.00
12624;BME280;6377;42.836;23.998;2023-08-17T06:53:09;95829.00;;;21.84;100.00
12624;BME280;6377;42.836;23.998;2023-08-17T06:55:36;95849.72;;;22.16;100.00
12624;BME280;6377;42.836;23.998;2023-08-17T06:58:04;95855.31;;;22.10;100.00
12624;BME280;6377;42.836;23.998;2023-08-17T07:00:31;95857.03;;;22.16;100.00
12624;BME280;6377;42.836;23.998;2023-08-17T07:02:59;95856.00;;;22.39;100.00
12624;BME280;6377;42.836;23.998;2023-08-17T07:05:26;95844.47;;;22.43;100.00
12624;BME280;6377;42.836;23.998;2023-08-17T07:07:55;95846.19;;;22.49;100.00
12624;BME280;6377;42.836;23.998;2023-08-17T07:10:23;95848.13;;;22.70;100.00
12624;BME280;6377;42.836;23.998;2023-08-17T07:12:50;95850.88;;;22.75;100.00
12624;BME280;6377;42.836;23.998;2023-08-17T07:15:18;95848.56;;;22.84;100.00
12624;BME280;6377;42.836;23.998;2023-08-17T07:17:45;95824.88;;;22.86;100.00
12624;BME280;6377;42.836;23.998;2023-08-17T07:20:13;95851.09;;;23.12;100.00
12624;BME280;6377;42.836;23.998;2023-08-17T07:22:40;95847.94;;;23.20;100.00
12624;BME280;6377;42.836;23.998;2023-08-17T07:25:09;95842.22;;;23.17;100.00
12624;BME280;6377;42.836;23.998;2023-08-17T07:27:36;95854.56;;;23.34;100.00
12624;BME280;6377;42.836;23.998;2023-08-17T07:30:04;95849.31;;;23.45;100.00
12624;BME280;6377;42.836;23.998;2023-08-17T07:32:31;95855.22;;;23.68;100.00
12624;BME280;6377;42.836;23.998;2023-08-17T07:34:58;95851.44;;;23.69;100.00
12624;BME280;6377;42.836;23.998;2023-08-17T07:37:26;95850.53;;;23.85;100.00
12624;BME280;6377;42.836;23.998;2023-08-17T07:39:58;95847.28;;;24.15;100.00
12624;BME280;6377;42.836;23.998;2023-08-17T07:42:27;95849.53;;;24.28;100.00
12624;BME280;6377;42.836;23.998;2023-08-17T07:44:54;95845.22;;;24.27;100.00
12624;BME280;6377;42.836;23.998;2023-08-17T07:47:21;95834.09;;;24.19;100.00
12624;BME280;6377;42.836;23.998;2023-08-17T07:49:48;95845.81;;;24.39;100.00
12624;BME280;6377;42.836;23.998;2023-08-17T07:52:16;95788.38;;;24.17;100.00
12624;BME280;6377;42.836;23.998;2023-08-17T07:54:44;95842.88;;;24.41;100.00
12624;BME280;6377;42.836;23.998;2023-08-17T07:57:11;95852.44;;;24.59;100.00
12624;BME280;6377;42.836;23.998;2023-08-17T07:59:40;95850.34;;;24.71;100.00
12624;BME280;6377;42.836;23.998;2023-08-17T08:02:07;95843.19;;;24.49;100.00
12624;BME280;6377;42.836;23.998;2023-08-17T08:04:35;95842.69;;;24.58;100.00
12624;BME280;6377;42.836;23.998;2023-08-17T08:07:02;95837.75;;;24.86;100.00
12624;BME280;6377;42.836;23.998;2023-08-17T08:09:30;95839.22;;;25.14;100.00
12624;BME280;6377;42.836;23.998;2023-08-17T08:11:57;95827.63;;;25.29;96.82
12624;BME280;6377;42.836;23.998;2023-08-17T08:14:24;95839.56;;;25.38;92.64
12624;BME280;6377;42.836;23.998;2023-08-17T08:16:53;95834.44;;;25.46;93.78
12624;BME280;6377;42.836;23.998;2023-08-17T08:19:20;95820.06;;;25.41;92.37
12624;BME280;6377;42.836;23.998;2023-08-17T08:21:48;95832.78;;;25.45;90.83
12624;BME280;6377;42.836;23.998;2023-08-17T08:24:15;95837.38;;;25.40;89.34
12624;BME280;6377;42.836;23.998;2023-08-17T08:26:42;95827.97;;;25.57;90.49
12624;BME280;6377;42.836;23.998;2023-08-17T08:29:09;95823.66;;;25.72;91.24
12624;BME280;6377;42.836;23.998;2023-08-17T08:31:36;95817.47;;;25.91;88.30
12624;BME280;6377;42.836;23.998;2023-08-17T08:34:05;95795.22;;;25.99;85.77
12624;BME280;6377;42.836;23.998;2023-08-17T08:36:32;95784.09;;;26.11;83.07
12624;BME280;6377;42.836;23.998;2023-08-17T08:39:00;95781.69;;;26.30;84.12
12624;BME280;6377;42.836;23.998;2023-08-17T08:41:29;95823.06;;;26.76;82.10
12624;BME280;6377;42.836;23.998;2023-08-17T08:43:57;95822.53;;;26.73;80.45
12624;BME280;6377;42.836;23.998;2023-08-17T08:46:26;95817.66;;;26.60;82.70
12624;BME280;6377;42.836;23.998;2023-08-17T08:48:58;95825.84;;;26.45;81.98
12624;BME280;6377;42.836;23.998;2023-08-17T08:51:27;95821.19;;;26.61;81.40
12624;BME280;6377;42.836;23.998;2023-08-17T08:54:00;95798.44;;;26.47;82.70
12624;BME280;6377;42.836;23.998;2023-08-17T08:56:31;95797.09;;;26.34;81.73
12624;BME280;6377;42.836;23.998;2023-08-17T08:59:01;95814.94;;;26.60;82.35
12624;BME280;6377;42.836;23.998;2023-08-17T09:01:30;95822.00;;;26.66;80.73
12624;BME280;6377;42.836;23.998;2023-08-17T09:03:59;95813.84;;;26.82;80.52
12624;BME280;6377;42.836;23.998;2023-08-17T09:06:29;95811.91;;;26.97;79.55
12624;BME280;6377;42.836;23.998;2023-08-17T09:08:57;95812.22;;;26.81;78.65
12624;BME280;6377;42.836;23.998;2023-08-17T09:11:25;95806.66;;;27.11;78.08
12624;BME280;6377;42.836;23.998;2023-08-17T09:13:53;95805.47;;;27.32;76.19
12624;BME280;6377;42.836;23.998;2023-08-17T09:16:20;95811.34;;;27.00;75.53
12624;BME280;6377;42.836;23.998;2023-08-17T09:18:47;95807.91;;;27.34;72.18
12624;BME280;6377;42.836;23.998;2023-08-17T09:21:21;95755.78;;;27.32;74.29
12624;BME280;6377;42.836;23.998;2023-08-17T09:23:54;95802.47;;;27.39;73.45
12624;BME280;6377;42.836;23.998;2023-08-17T09:26:22;95776.31;;;27.53;71.34
12624;BME280;6377;42.836;23.998;2023-08-17T09:28:49;95792.50;;;28.02;71.50
12624;BME280;6377;42.836;23.998;2023-08-17T09:31:20;95773.13;;;28.13;67.61
12624;BME280;6377;42.836;23.998;2023-08-17T09:33:49;95796.13;;;28.55;67.33
12624;BME280;6377;42.836;23.998;2023-08-17T09:36:20;95786.25;;;28.35;67.56
12624;BME280;6377;42.836;23.998;2023-08-17T09:38:48;95780.66;;;28.50;66.09
12624;BME280;6377;42.836;23.998;2023-08-17T09:41:18;95788.00;;;28.78;67.04
12624;BME280;6377;42.836;23.998;2023-08-17T09:43:45;95779.72;;;28.88;65.26
12624;BME280;6377;42.836;23.998;2023-08-17T09:46:13;95771.72;;;28.97;65.08
12624;BME280;6377;42.836;23.998;2023-08-17T09:48:43;95774.03;;;28.85;65.28
12624;BME280;6377;42.836;23.998;2023-08-17T09:51:14;95773.31;;;28.74;65.01
12624;BME280;6377;42.836;23.998;2023-08-17T09:53:41;95767.34;;;28.49;65.30
12624;BME280;6377;42.836;23.998;2023-08-17T09:56:09;95757.94;;;28.60;64.94
12624;BME280;6377;42.836;23.998;2023-08-17T09:58:39;95767.00;;;29.03;63.39
12624;BME280;6377;42.836;23.998;2023-08-17T10:01:08;95759.78;;;29.35;61.04
12624;BME280;6377;42.836;23.998;2023-08-17T10:03:39;95762.91;;;29.80;58.54
12624;BME280;6377;42.836;23.998;2023-08-17T10:06:10;95754.41;;;30.32;59.43
12624;BME280;6377;42.836;23.998;2023-08-17T10:08:42;95750.41;;;30.57;58.40
12624;BME280;6377;42.836;23.998;2023-08-17T10:11:10;95753.44;;;30.83;57.29
12624;BME280;6377;42.836;23.998;2023-08-17T10:13:46;95749.91;;;30.69;57.05
12624;BME280;6377;42.836;23.998;2023-08-17T10:16:21;95731.03;;;30.99;55.48
12624;BME280;6377;42.836;23.998;2023-08-17T10:18:54;95740.31;;;30.58;56.24
12624;BME280;6377;42.836;23.998;2023-08-17T10:21:28;95744.06;;;31.02;54.12
12624;BME280;6377;42.836;23.998;2023-08-17T10:23:57;95721.94;;;30.17;55.77
12624;BME280;6377;42.836;23.998;2023-08-17T10:26:24;95737.97;;;30.92;55.25
12624;BME280;6377;42.836;23.998;2023-08-17T10:28:53;95732.53;;;31.05;54.26
12624;BME280;6377;42.836;23.998;2023-08-17T10:31:24;95726.47;;;31.08;52.91
12624;BME280;6377;42.836;23.998;2023-08-17T10:33:51;95735.88;;;31.38;53.66
12624;BME280;6377;42.836;23.998;2023-08-17T10:36:19;95728.38;;;31.57;52.38
12624;BME280;6377;42.836;23.998;2023-08-17T10:38:46;95720.34;;;31.83;50.15
12624;BME280;6377;42.836;23.998;2023-08-17T10:41:15;95703.00;;;32.10;49.48
12624;BME280;6377;42.836;23.998;2023-08-17T10:43:56;95721.00;;;32.64;47.37
12624;BME280;6377;42.836;23.998;2023-08-17T10:46:33;95716.09;;;32.92;45.84
12624;BME280;6377;42.836;23.998;2023-08-17T10:49:04;95701.50;;;33.22;45.17
12624;BME280;6377;42.836;23.998;2023-08-17T10:51:35;95689.97;;;32.86;45.93
12624;BME280;6377;42.836;23.998;2023-08-17T10:54:03;95716.44;;;32.20;47.16
12624;BME280;6377;42.836;23.998;2023-08-17T10:56:32;95720.47;;;32.23;46.85
12624;BME280;6377;42.836;23.998;2023-08-17T10:59:01;95698.13;;;30.91;48.69
12624;BME280;6377;42.836;23.998;2023-08-17T11:01:33;95708.47;;;31.30;48.91
12624;BME280;6377;42.836;23.998;2023-08-17T11:04:11;95711.44;;;31.20;49.16
12624;BME280;6377;42.836;23.998;2023-08-17T11:06:39;95679.00;;;30.77;49.82
12624;BME280;6377;42.836;23.998;2023-08-17T11:09:08;95692.94;;;31.03;50.20
12624;BME280;6377;42.836;23.998;2023-08-17T11:11:35;95674.50;;;31.22;47.89
12624;BME280;6377;42.836;23.998;2023-08-17T11:14:11;95702.56;;;31.72;47.66
12624;BME280;6377;42.836;23.998;2023-08-17T11:16:41;95699.28;;;31.84;47.39
12624;BME280;6377;42.836;23.998;2023-08-17T11:19:08;95703.38;;;32.17;45.77
12624;BME280;6377;42.836;23.998;2023-08-17T11:21:36;95695.22;;;32.03;45.98
12624;BME280;6377;42.836;23.998;2023-08-17T11:24:03;95701.19;;;31.83;46.22
12624;BME280;6377;42.836;23.998;2023-08-17T11:26:36;95678.34;;;31.57;45.91
12624;BME280;6377;42.836;23.998;2023-08-17T11:29:03;95685.66;;;31.48;47.09
12624;BME280;6377;42.836;23.998;2023-08-17T11:31:32;95667.41;;;31.21;48.17
12624;BME280;6377;42.836;23.998;2023-08-17T11:34:00;95682.00;;;31.52;47.27
12624;BME280;6377;42.836;23.998;2023-08-17T11:36:27;95685.16;;;31.68;46.17
12624;BME280;6377;42.836;23.998;2023-08-17T11:38:55;95680.97;;;32.15;44.39
12624;BME280;6377;42.836;23.998;2023-08-17T11:41:22;95656.75;;;31.78;46.52
12624;BME280;6377;42.836;23.998;2023-08-17T11:43:49;95680.09;;;32.28;45.19
12624;BME280;6377;42.836;23.998;2023-08-17T11:46:16;95678.53;;;32.92;41.98
12624;BME280;6377;42.836;23.998;2023-08-17T11:48:45;95681.78;;;33.03;41.69
12624;BME280;6377;42.836;23.998;2023-08-17T11:51:14;95671.13;;;32.45;42.20
12624;BME280;6377;42.836;23.998;2023-08-17T11:53:41;95674.56;;;32.20;43.44
12624;BME280;6377;42.836;23.998;2023-08-17T11:56:08;95654.44;;;31.93;41.95
12624;BME280;6377;42.836;23.998;2023-08-17T11:58:42;95666.28;;;32.42;42.11
12624;BME280;6377;42.836;23.998;2023-08-17T12:01:10;95647.38;;;32.71;41.02
12624;BME280;6377;42.836;23.998;2023-08-17T12:03:39;95650.13;;;32.01;40.85
12624;BME280;6377;42.836;23.998;2023-08-17T12:06:08;95657.34;;;32.19;41.55
12624;BME280;6377;42.836;23.998;2023-08-17T12:08:36;95644.63;;;32.62;41.57
12624;BME280;6377;42.836;23.998;2023-08-17T12:11:03;95651.84;;;33.41;39.32
12624;BME280;6377;42.836;23.998;2023-08-17T12:13:32;95639.03;;;34.13;38.70
12624;BME280;6377;42.836;23.998;2023-08-17T12:15:59;95651.53;;;33.68;38.43
12624;BME280;6377;42.836;23.998;2023-08-17T12:18:27;95638.94;;;33.75;39.04
12624;BME280;6377;42.836;23.998;2023-08-17T12:20:54;95644.06;;;34.41;38.43
12624;BME280;6377;42.836;23.998;2023-08-17T12:23:23;95641.66;;;34.77;36.95
12624;BME280;6377;42.836;23.998;2023-08-17T12:25:54;95636.59;;;34.50;36.71
12624;BME280;6377;42.836;23.998;2023-08-17T12:28:22;95619.34;;;34.78;36.67
12624;BME280;6377;42.836;23.998;2023-08-17T12:30:57;95633.59;;;35.42;35.58
12624;BME280;6377;42.836;23.998;2023-08-17T12:33:41;95630.84;;;35.96;34.58
12624;BME280;6377;42.836;23.998;2023-08-17T12:36:08;95633.31;;;36.22;34.11
12624;BME280;6377;42.836;23.998;2023-08-17T12:38:35;95625.09;;;36.70;33.56
12624;BME280;6377;42.836;23.998;2023-08-17T12:41:03;95621.28;;;37.11;33.66
12624;BME280;6377;42.836;23.998;2023-08-17T12:43:30;95619.38;;;37.39;32.16
12624;BME280;6377;42.836;23.998;2023-08-17T12:45:57;95619.34;;;37.51;31.80
12624;BME280;6377;42.836;23.998;2023-08-17T12:48:25;95623.81;;;37.84;32.03
12624;BME280;6377;42.836;23.998;2023-08-17T12:50:53;95627.47;;;37.08;32.76
12624;BME280;6377;42.836;23.998;2023-08-17T12:53:20;95616.91;;;36.49;33.32
12624;BME280;6377;42.836;23.998;2023-08-17T12:55:48;95617.78;;;36.05;34.05
12624;BME280;6377;42.836;23.998;2023-08-17T12:58:15;95621.94;;;36.23;33.91